Time;durP1;ratioP1;P1;durP2;ratioP2;P2;SDS_P1;SDS_P2;PMS_P1;PMS_P2;Temp;Humidity;BMP_temperature;BMP_pressure;BME280_temperature;BME280_humidity;BME280_pressure;Samples;Min_cycle;Max_cycle;Signal;HPM_P1;HPM_P2
2024/01/18 00:01:10;;;;;;;5.20;2.73;;;0.20;99.90;;;;;;5001937;28;20050;-78
2024/01/18 00:03:40;;;;;;;5.70;2.90;;;0.20;99.90;;;;;;5015403;28;20413;-78
2024/01/18 00:06:08;;;;;;;4.87;2.37;;;0.20;99.90;;;;;;5018150;28;20046;-78
2024/01/18 00:08:35;;;;;;;6.13;3.80;;;0.10;99.90;;;;;;5018028;28;20460;-78
2024/01/18 00:11:02;;;;;;;7.50;4.90;;;0.10;99.90;;;;;;4986468;28;20141;-78
2024/01/18 00:13:29;;;;;;;8.33;4.67;;;0.10;99.90;;;;;;4998614;28;20130;-78
2024/01/18 00:15:56;;;;;;;10.93;6.80;;;0.00;99.90;;;;;;5016340;28;20490;-78
2024/01/18 00:18:23;;;;;;;10.03;6.27;;;0.00;99.90;;;;;;4979266;28;20494;-78
2024/01/18 00:20:50;;;;;;;11.27;6.70;;;0.00;99.90;;;;;;5017724;28;20037;-78
2024/01/18 00:23:17;;;;;;;9.60;5.70;;;0.00;99.90;;;;;;5001058;28;20060;-78
2024/01/18 00:25:44;;;;;;;8.93;5.37;;;-0.10;99.90;;;;;;5017425;28;20064;-78
2024/01/18 00:28:11;;;;;;;8.53;4.80;;;0.00;99.90;;;;;;5033690;28;20496;-78
2024/01/18 00:30:39;;;;;;;10.10;4.83;;;-0.10;99.90;;;;;;5028147;28;20046;-78
2024/01/18 00:33:06;;;;;;;8.07;4.83;;;0.00;99.90;;;;;;5001007;28;20073;-78
2024/01/18 00:35:33;;;;;;;8.63;4.10;;;-0.10;99.90;;;;;;5017574;28;20456;-78
2024/01/18 00:38:00;;;;;;;6.47;3.67;;;-0.10;99.90;;;;;;5025531;28;20069;-78
2024/01/18 00:40:27;;;;;;;7.57;4.67;;;-0.10;99.90;;;;;;5003864;28;20049;-78
2024/01/18 00:42:54;;;;;;;7.77;4.43;;;-0.10;99.90;;;;;;4989336;28;20048;-78
2024/01/18 00:45:21;;;;;;;7.00;4.10;;;-0.10;99.90;;;;;;5027888;28;20050;-79
2024/01/18 00:47:48;;;;;;;8.63;4.40;;;-0.10;99.90;;;;;;5008323;28;20076;-77
2024/01/18 00:50:15;;;;;;;9.23;5.80;;;-0.10;99.90;;;;;;4997956;28;20041;-78
2024/01/18 00:52:42;;;;;;;9.13;5.10;;;-0.20;99.90;;;;;;5014017;28;20069;-78
2024/01/18 00:55:10;;;;;;;9.87;5.37;;;-0.10;99.90;;;;;;4998809;28;20049;-77
2024/01/18 00:57:37;;;;;;;7.10;4.67;;;-0.10;99.90;;;;;;5013902;28;20034;-78
2024/01/18 01:00:05;;;;;;;7.70;4.33;;;-0.10;99.90;;;;;;5010933;28;20037;-79
2024/01/18 01:02:32;;;;;;;8.63;4.97;;;-0.10;99.90;;;;;;5019444;28;20049;-78
2024/01/18 01:04:59;;;;;;;9.87;5.47;;;-0.10;99.90;;;;;;5028295;28;20046;-78
2024/01/18 01:07:26;;;;;;;11.27;6.40;;;-0.20;99.90;;;;;;5013552;28;20045;-78
2024/01/18 01:09:53;;;;;;;12.67;8.37;;;-0.20;99.90;;;;;;5025695;28;20097;-78
2024/01/18 01:12:20;;;;;;;10.70;7.20;;;-0.20;99.90;;;;;;5029767;28;20044;-78
2024/01/18 01:14:47;;;;;;;12.50;7.03;;;-0.20;99.90;;;;;;5000780;28;20397;-77
2024/01/18 01:17:14;;;;;;;10.80;7.37;;;-0.10;99.90;;;;;;5016758;28;20041;-78
2024/01/18 01:19:41;;;;;;;9.80;6.00;;;-0.10;99.90;;;;;;5033231;28;20033;-78
2024/01/18 01:22:08;;;;;;;9.33;6.20;;;-0.10;99.90;;;;;;5032740;28;20064;-78
2024/01/18 01:24:38;;;;;;;9.13;5.23;;;-0.20;99.90;;;;;;4970656;28;20453;-78
2024/01/18 01:27:06;;;;;;;10.03;5.93;;;-0.20;99.90;;;;;;5023171;28;20053;-77
2024/01/18 01:29:33;;;;;;;10.97;5.80;;;-0.10;99.90;;;;;;5032976;28;20465;-77
2024/01/18 01:32:00;;;;;;;8.70;5.37;;;-0.20;99.90;;;;;;5032811;28;20041;-77
2024/01/18 01:34:27;;;;;;;9.33;5.73;;;-0.20;99.90;;;;;;5016628;28;20045;-77
2024/01/18 01:36:55;;;;;;;11.07;5.53;;;-0.20;99.90;;;;;;5027911;28;20566;-77
2024/01/18 01:39:22;;;;;;;11.87;7.17;;;-0.20;99.90;;;;;;5016470;28;20041;-77
2024/01/18 01:41:49;;;;;;;14.80;9.03;;;-0.30;99.90;;;;;;5033875;28;20072;-77
2024/01/18 01:44:15;;;;;;;13.93;8.57;;;-0.30;99.90;;;;;;5032636;28;20097;-77
2024/01/18 01:46:43;;;;;;;14.43;8.57;;;-0.30;99.90;;;;;;5014568;28;20490;-77
2024/01/18 01:49:10;;;;;;;13.27;7.33;;;-0.30;99.90;;;;;;5016336;28;20474;-77
2024/01/18 01:51:48;;;;;;;10.50;6.83;;;-0.40;99.90;;;;;;4986091;28;20405;-77
2024/01/18 01:54:19;;;;;;;10.77;6.23;;;-0.40;99.90;;;;;;5033609;28;20481;-77
2024/01/18 01:56:51;;;;;;;14.60;7.80;;;-0.40;99.90;;;;;;5033580;28;20078;-77
2024/01/18 01:59:19;;;;;;;11.20;7.10;;;-0.50;99.90;;;;;;5032489;28;20067;-77
2024/01/18 02:01:46;;;;;;;11.83;6.27;;;-0.50;99.90;;;;;;5012583;28;20053;-78
2024/01/18 02:04:15;;;;;;;10.40;6.67;;;-0.50;99.90;;;;;;5012708;28;20069;-78
2024/01/18 02:06:43;;;;;;;9.50;5.27;;;-0.50;99.90;;;;;;5024707;28;20042;-78
2024/01/18 02:09:14;;;;;;;11.33;6.10;;;-0.50;99.90;;;;;;5032090;28;20144;-78
2024/01/18 02:11:41;;;;;;;9.77;6.70;;;-0.60;99.90;;;;;;5009063;28;20045;-78
2024/01/18 02:14:08;;;;;;;12.40;6.90;;;-0.60;99.90;;;;;;5014956;28;20116;-78
2024/01/18 02:16:35;;;;;;;12.40;7.00;;;-0.60;99.90;;;;;;5007965;28;20386;-78
2024/01/18 02:19:02;;;;;;;12.83;7.97;;;-0.60;99.90;;;;;;5023672;28;20099;-78
2024/01/18 02:21:30;;;;;;;12.57;7.50;;;-0.60;99.90;;;;;;5010291;28;20042;-79
2024/01/18 02:24:31;;;;;;;13.00;7.73;;;-0.60;99.90;;;;;;5012385;28;20133;-78
2024/01/18 02:26:59;;;;;;;12.20;6.80;;;-0.70;99.90;;;;;;5023132;28;20080;-78
2024/01/18 02:29:26;;;;;;;11.63;6.30;;;-0.70;99.90;;;;;;5030951;28;20049;-77
2024/01/18 02:31:53;;;;;;;11.30;6.23;;;-0.70;99.90;;;;;;4985461;28;20049;-77
2024/01/18 02:34:20;;;;;;;10.40;5.43;;;-0.70;99.90;;;;;;5031790;28;20413;-78
2024/01/18 02:36:47;;;;;;;7.83;4.87;;;-0.70;99.90;;;;;;5001802;28;20041;-78
2024/01/18 02:39:14;;;;;;;9.20;4.90;;;-0.80;99.90;;;;;;5015387;28;20049;-78
2024/01/18 02:41:41;;;;;;;7.40;4.43;;;-0.80;99.90;;;;;;4981885;28;20061;-77
2024/01/18 02:44:09;;;;;;;8.40;4.53;;;-0.80;99.90;;;;;;5031919;28;20107;-77
2024/01/18 02:46:36;;;;;;;6.20;3.60;;;-0.80;99.90;;;;;;5031653;28;20065;-78
2024/01/18 02:49:03;;;;;;;6.67;3.40;;;-0.70;99.90;;;;;;5015454;28;20049;-78
2024/01/18 02:51:31;;;;;;;6.07;3.30;;;-0.70;99.90;;;;;;4989936;28;20399;-78
2024/01/18 02:53:59;;;;;;;6.40;3.10;;;-0.70;99.90;;;;;;5014945;28;20072;-78
2024/01/18 02:56:26;;;;;;;6.27;3.30;;;-0.80;99.90;;;;;;4999088;28;20048;-78
2024/01/18 02:58:53;;;;;;;7.33;3.37;;;-0.80;99.90;;;;;;5015112;28;20556;-77
2024/01/18 03:01:19;;;;;;;6.10;2.87;;;-0.70;99.90;;;;;;5015167;28;20053;-79
2024/01/18 03:03:47;;;;;;;6.27;3.43;;;-0.80;99.90;;;;;;5031627;28;20041;-78
2024/01/18 03:06:14;;;;;;;7.97;4.07;;;-0.70;99.90;;;;;;4999173;28;20049;-78
2024/01/18 03:08:43;;;;;;;5.83;2.90;;;-0.70;99.90;;;;;;5032675;28;20037;-78
2024/01/18 03:11:10;;;;;;;5.87;3.23;;;-0.70;99.90;;;;;;5003906;28;20045;-77
2024/01/18 03:13:38;;;;;;;5.33;2.63;;;-0.70;99.90;;;;;;5018538;28;20042;-78
2024/01/18 03:16:08;;;;;;;7.43;3.57;;;-0.70;99.90;;;;;;5032213;28;20482;-78
2024/01/18 03:18:35;;;;;;;8.47;3.70;;;-0.60;99.90;;;;;;5032542;28;20498;-78
2024/01/18 03:21:06;;;;;;;6.50;3.97;;;-0.60;99.90;;;;;;5031367;28;20041;-76
2024/01/18 03:23:33;;;;;;;5.57;3.50;;;-0.60;99.90;;;;;;5014862;28;20061;-76
2024/01/18 03:26:00;;;;;;;6.67;3.77;;;-0.60;99.90;;;;;;5001149;28;20045;-78
2024/01/18 03:28:27;;;;;;;5.33;2.63;;;-0.60;99.90;;;;;;4985294;28;20045;-78
2024/01/18 03:30:54;;;;;;;4.57;2.13;;;-0.70;99.90;;;;;;5019990;28;20125;-78
2024/01/18 03:33:21;;;;;;;6.33;2.70;;;-0.70;99.90;;;;;;5012771;28;20042;-78
2024/01/18 03:35:48;;;;;;;4.60;2.30;;;-0.70;99.90;;;;;;5031358;28;20045;-78
2024/01/18 03:38:15;;;;;;;4.53;1.90;;;-0.70;99.90;;;;;;5014830;28;20049;-77
2024/01/18 03:40:42;;;;;;;4.40;1.80;;;-0.80;99.90;;;;;;5028717;28;20367;-77
2024/01/18 03:43:11;;;;;;;4.20;2.03;;;-0.80;99.90;;;;;;5017277;28;20399;-78
2024/01/18 03:45:38;;;;;;;3.13;1.43;;;-0.90;99.90;;;;;;5010679;28;20046;-78
2024/01/18 03:48:08;;;;;;;4.80;1.80;;;-0.90;99.90;;;;;;5027922;28;20517;-77
2024/01/18 03:50:35;;;;;;;3.73;2.00;;;-0.90;99.90;;;;;;5015453;28;20077;-78
2024/01/18 03:53:02;;;;;;;4.80;2.33;;;-0.80;99.90;;;;;;5026666;28;20490;-78
2024/01/18 03:55:29;;;;;;;4.70;1.90;;;-0.80;99.90;;;;;;5004757;28;20037;-78
2024/01/18 03:57:57;;;;;;;3.47;1.43;;;-0.80;99.90;;;;;;5014977;28;20494;-78
2024/01/18 04:00:24;;;;;;;4.30;1.77;;;-0.70;99.90;;;;;;5001263;28;20050;-78
2024/01/18 04:02:52;;;;;;;3.63;1.73;;;-0.70;99.90;;;;;;5035880;28;20120;-78
2024/01/18 04:05:19;;;;;;;3.43;1.50;;;-0.70;99.90;;;;;;5018148;28;20045;-78
2024/01/18 04:07:47;;;;;;;3.87;1.37;;;-0.70;99.90;;;;;;5034323;28;20120;-78
2024/01/18 04:10:14;;;;;;;2.87;1.30;;;-0.70;99.90;;;;;;5005578;28;20046;-78
2024/01/18 04:12:42;;;;;;;2.70;1.13;;;-0.60;99.90;;;;;;5034323;28;20051;-78
2024/01/18 04:15:09;;;;;;;4.17;1.70;;;-0.60;99.90;;;;;;4990183;28;20510;-78
2024/01/18 04:17:37;;;;;;;2.07;0.90;;;-0.60;99.90;;;;;;5032559;28;20092;-78
2024/01/18 04:20:06;;;;;;;4.07;1.50;;;-0.60;99.90;;;;;;5014615;28;20398;-78
2024/01/18 04:22:33;;;;;;;4.33;1.13;;;-0.60;99.90;;;;;;5031955;28;20132;-78
2024/01/18 04:25:00;;;;;;;2.73;1.10;;;-0.60;99.90;;;;;;5011536;28;20052;-78
2024/01/18 04:27:28;;;;;;;2.53;1.00;;;-0.60;99.90;;;;;;5014481;28;20065;-77
2024/01/18 04:29:55;;;;;;;4.73;1.00;;;-0.70;99.90;;;;;;5017712;28;20103;-77
2024/01/18 04:32:22;;;;;;;1.90;0.77;;;-0.80;99.90;;;;;;5014331;28;20145;-77
2024/01/18 04:34:49;;;;;;;2.20;0.90;;;-0.80;99.90;;;;;;5012031;28;20045;-78
2024/01/18 04:37:16;;;;;;;2.03;0.83;;;-0.80;99.90;;;;;;5014232;28;20070;-78
2024/01/18 04:39:43;;;;;;;2.70;0.90;;;-0.90;99.90;;;;;;5008426;28;20040;-78
2024/01/18 04:42:10;;;;;;;2.67;0.70;;;-0.90;99.90;;;;;;5028178;28;20041;-77
2024/01/18 04:44:38;;;;;;;2.10;0.80;;;-0.90;99.90;;;;;;5028779;28;20140;-78
2024/01/18 04:47:06;;;;;;;2.20;0.93;;;-1.00;99.90;;;;;;5033349;28;20492;-77
2024/01/18 04:49:33;;;;;;;2.27;1.03;;;-1.00;99.90;;;;;;5016872;28;20160;-78
2024/01/18 04:52:00;;;;;;;3.30;1.13;;;-1.00;99.90;;;;;;5000998;28;20037;-77
2024/01/18 04:54:27;;;;;;;2.13;0.80;;;-1.10;99.90;;;;;;5001217;28;20488;-77
2024/01/18 04:56:55;;;;;;;2.40;0.90;;;-1.10;99.90;;;;;;5014451;28;20077;-77
2024/01/18 04:59:22;;;;;;;4.00;1.90;;;-1.10;99.90;;;;;;5017382;28;20045;-77
2024/01/18 05:01:49;;;;;;;4.03;1.33;;;-1.10;99.90;;;;;;4994211;28;20049;-77
2024/01/18 05:04:18;;;;;;;4.30;1.63;;;-1.10;99.90;;;;;;5033526;28;20049;-77
2024/01/18 05:06:46;;;;;;;4.57;1.90;;;-1.10;99.90;;;;;;5004562;28;20050;-77
2024/01/18 05:09:16;;;;;;;3.57;1.63;;;-1.10;99.90;;;;;;5011063;28;20144;-77
2024/01/18 05:11:43;;;;;;;3.93;1.50;;;-1.20;99.90;;;;;;5025052;28;20474;-77
2024/01/18 05:14:11;;;;;;;6.50;1.70;;;-1.20;99.90;;;;;;5012294;28;20049;-78
2024/01/18 05:16:43;;;;;;;3.57;1.70;;;-1.20;99.90;;;;;;5007097;28;20413;-78
2024/01/18 05:19:11;;;;;;;3.50;1.37;;;-1.20;99.90;;;;;;5017643;28;20088;-78
2024/01/18 05:21:38;;;;;;;3.87;1.40;;;-1.20;99.90;;;;;;5015889;28;20095;-78
2024/01/18 05:24:06;;;;;;;4.27;1.53;;;-1.30;99.90;;;;;;5002716;28;20054;-78
2024/01/18 05:26:33;;;;;;;3.27;1.47;;;-1.30;99.90;;;;;;4996990;28;20046;-77
2024/01/18 05:29:00;;;;;;;3.43;1.70;;;-1.30;99.90;;;;;;5022985;28;20116;-78
2024/01/18 05:31:27;;;;;;;5.67;2.47;;;-1.30;99.90;;;;;;5032847;28;20041;-78
2024/01/18 05:33:56;;;;;;;6.97;3.30;;;-1.30;99.90;;;;;;5024724;28;20057;-77
2024/01/18 05:36:23;;;;;;;6.40;2.73;;;-1.30;99.90;;;;;;4971208;28;20053;-77
2024/01/18 05:38:50;;;;;;;4.73;2.60;;;-1.30;99.90;;;;;;5016810;28;20489;-77
2024/01/18 05:41:17;;;;;;;5.23;2.20;;;-1.30;99.90;;;;;;5016509;28;20037;-77
2024/01/18 05:43:44;;;;;;;5.97;2.50;;;-1.30;99.90;;;;;;5002621;28;20045;-78
2024/01/18 05:46:11;;;;;;;5.37;2.10;;;-1.30;99.90;;;;;;5021485;28;20038;-77
2024/01/18 05:48:38;;;;;;;4.37;1.90;;;-1.30;99.90;;;;;;5013887;28;20107;-78
2024/01/18 05:51:05;;;;;;;5.00;2.30;;;-1.30;99.90;;;;;;5016298;28;20096;-78
2024/01/18 05:53:33;;;;;;;4.47;2.10;;;-1.40;99.90;;;;;;4999810;28;20132;-77
2024/01/18 05:56:01;;;;;;;4.10;2.03;;;-1.40;99.90;;;;;;5032653;28;20061;-78
2024/01/18 05:58:31;;;;;;;4.20;1.70;;;-1.40;99.90;;;;;;5002150;28;20037;-78
2024/01/18 06:01:00;;;;;;;4.83;2.30;;;-1.40;99.90;;;;;;5016117;28;20049;-78
2024/01/18 06:03:27;;;;;;;4.73;2.03;;;-1.40;99.90;;;;;;5032312;28;20103;-78
2024/01/18 06:05:57;;;;;;;4.47;1.77;;;-1.40;99.90;;;;;;5016160;28;20045;-78
2024/01/18 06:08:26;;;;;;;3.23;1.60;;;-1.40;99.90;;;;;;4992992;28;20050;-78
2024/01/18 06:10:53;;;;;;;2.97;1.40;;;-1.40;99.90;;;;;;4986222;28;20103;-78
2024/01/18 06:13:20;;;;;;;5.60;1.87;;;-1.50;99.90;;;;;;5032208;28;20041;-78
2024/01/18 06:15:47;;;;;;;4.53;1.60;;;-1.50;99.90;;;;;;5032030;28;20136;-79
2024/01/18 06:18:14;;;;;;;3.97;2.07;;;-1.50;99.90;;;;;;5011446;28;20482;-78
2024/01/18 06:20:41;;;;;;;5.87;2.10;;;-1.50;99.90;;;;;;5002148;28;20073;-78
2024/01/18 06:23:08;;;;;;;4.03;1.77;;;-1.50;99.90;;;;;;5000093;28;20384;-78
2024/01/18 06:25:35;;;;;;;4.27;1.80;;;-1.50;99.90;;;;;;5009761;28;20406;-78
2024/01/18 06:28:04;;;;;;;3.90;1.93;;;-1.50;99.90;;;;;;5015535;28;20049;-78
2024/01/18 06:30:33;;;;;;;4.20;1.70;;;-1.50;99.90;;;;;;5015926;28;20136;-78
2024/01/18 06:33:02;;;;;;;2.70;1.40;;;-1.50;99.90;;;;;;5018100;28;20496;-78
2024/01/18 06:35:32;;;;;;;3.87;1.77;;;-1.50;99.90;;;;;;4992764;28;20100;-78
2024/01/18 06:37:59;;;;;;;4.27;1.77;;;-1.50;99.90;;;;;;4996563;28;20042;-78
2024/01/18 06:40:26;;;;;;;3.30;1.40;;;-1.50;99.90;;;;;;4985659;28;20049;-78
2024/01/18 06:42:53;;;;;;;3.83;1.77;;;-1.50;99.90;;;;;;4992675;28;20115;-78
2024/01/18 06:45:20;;;;;;;3.50;1.20;;;-1.50;99.90;;;;;;5032950;28;20506;-78
2024/01/18 06:47:47;;;;;;;3.50;1.63;;;-1.50;99.90;;;;;;5015296;28;20106;-78
2024/01/18 06:50:15;;;;;;;3.77;1.63;;;-1.50;99.90;;;;;;4998857;28;20045;-78
2024/01/18 06:52:42;;;;;;;3.67;1.40;;;-1.60;99.90;;;;;;5015078;28;20049;-78
2024/01/18 06:55:09;;;;;;;3.50;1.20;;;-1.60;99.90;;;;;;5002145;28;20042;-78
2024/01/18 06:57:36;;;;;;;4.43;1.30;;;-1.60;99.90;;;;;;4992049;28;20038;-78
2024/01/18 07:00:04;;;;;;;3.10;1.20;;;-1.50;99.90;;;;;;5025337;28;20052;-78
2024/01/18 07:02:33;;;;;;;2.57;1.20;;;-1.60;99.90;;;;;;5017641;28;20045;-78
2024/01/18 07:05:00;;;;;;;2.73;0.93;;;-1.60;99.90;;;;;;5011783;28;20490;-78
2024/01/18 07:07:27;;;;;;;2.87;1.00;;;-1.60;99.90;;;;;;5009674;28;20077;-78
2024/01/18 07:09:55;;;;;;;4.87;1.30;;;-1.60;99.90;;;;;;5002724;28;20046;-78
2024/01/18 07:12:22;;;;;;;2.53;1.30;;;-1.60;99.90;;;;;;5028427;28;20084;-78
2024/01/18 07:14:49;;;;;;;3.83;1.20;;;-1.60;99.90;;;;;;5031472;28;20042;-78
2024/01/18 07:17:16;;;;;;;3.30;0.97;;;-1.60;99.90;;;;;;5024500;28;20052;-78
2024/01/18 07:19:43;;;;;;;3.07;1.10;;;-1.50;99.90;;;;;;5029092;28;20046;-78
2024/01/18 07:22:10;;;;;;;3.73;1.43;;;-1.60;99.90;;;;;;4989926;28;20091;-78
2024/01/18 07:24:37;;;;;;;3.00;1.23;;;-1.50;99.90;;;;;;5034710;28;20049;-78
2024/01/18 07:27:09;;;;;;;3.13;1.10;;;-1.50;99.90;;;;;;5018906;28;20551;-78
2024/01/18 07:29:36;;;;;;;1.95;0.70;;;-1.50;99.90;;;;;;5034324;28;20041;-78
2024/01/18 07:32:04;;;;;;;1.93;0.77;;;-1.60;99.90;;;;;;5035113;28;20037;-78
2024/01/18 07:34:33;;;;;;;2.53;1.00;;;-1.60;99.90;;;;;;5035136;28;20117;-78
2024/01/18 07:37:00;;;;;;;3.03;0.90;;;-1.60;99.90;;;;;;5034072;28;20394;-78
2024/01/18 07:39:27;;;;;;;1.67;0.70;;;-1.60;99.90;;;;;;5007449;28;20558;-78
2024/01/18 07:41:54;;;;;;;1.93;0.90;;;-1.60;99.90;;;;;;5000510;28;20544;-78
2024/01/18 07:44:21;;;;;;;2.23;0.80;;;-1.60;99.90;;;;;;4997449;28;20045;-78
2024/01/18 07:46:49;;;;;;;1.57;0.70;;;-1.60;99.90;;;;;;4988622;28;20048;-78
2024/01/18 07:49:17;;;;;;;3.23;1.20;;;-1.60;99.90;;;;;;5015145;28;20126;-78
2024/01/18 07:51:44;;;;;;;2.10;0.80;;;-1.60;99.90;;;;;;5013553;28;20053;-78
2024/01/18 07:54:11;;;;;;;3.07;1.10;;;-1.50;99.90;;;;;;4995174;28;20128;-78
2024/01/18 07:56:38;;;;;;;2.60;1.03;;;-1.50;99.90;;;;;;5028199;28;20512;-78
2024/01/18 07:59:08;;;;;;;2.40;1.00;;;-1.50;99.90;;;;;;5001920;28;20490;-77
2024/01/18 08:01:35;;;;;;;2.30;0.70;;;-1.50;99.90;;;;;;4990389;28;20445;-78
2024/01/18 08:04:06;;;;;;;3.97;0.97;;;-1.40;99.90;;;;;;5001596;28;20065;-77
2024/01/18 08:06:33;;;;;;;2.30;1.03;;;-1.40;99.90;;;;;;5009221;28;20132;-77
2024/01/18 08:09:00;;;;;;;2.00;0.63;;;-1.40;99.90;;;;;;5001939;28;20053;-79
2024/01/18 08:11:28;;;;;;;1.97;0.67;;;-1.40;99.90;;;;;;5027301;28;20054;-78
2024/01/18 08:13:55;;;;;;;2.53;0.70;;;-1.40;99.90;;;;;;4988301;28;20034;-79
2024/01/18 08:16:22;;;;;;;1.77;0.70;;;-1.40;99.90;;;;;;4995366;28;20124;-78
2024/01/18 08:18:49;;;;;;;2.17;0.80;;;-1.50;99.90;;;;;;5028370;28;20099;-78
2024/01/18 08:21:17;;;;;;;2.03;1.00;;;-1.50;99.90;;;;;;5011710;28;20544;-78
2024/01/18 08:23:44;;;;;;;2.10;0.70;;;-1.50;99.90;;;;;;5027882;28;20081;-78
2024/01/18 08:26:12;;;;;;;1.87;0.67;;;-1.50;99.90;;;;;;5001646;28;20045;-78
2024/01/18 08:28:39;;;;;;;1.77;0.63;;;-1.50;99.90;;;;;;5034079;28;20480;-80
2024/01/18 08:31:06;;;;;;;2.03;0.80;;;-1.50;99.90;;;;;;5017523;28;20513;-79
2024/01/18 08:33:33;;;;;;;2.90;0.83;;;-1.60;99.90;;;;;;5033883;28;20095;-78
2024/01/18 08:36:00;;;;;;;3.63;0.93;;;-1.50;99.90;;;;;;5034024;28;20046;-78
2024/01/18 08:38:28;;;;;;;3.63;1.10;;;-1.50;99.90;;;;;;4997774;28;20513;-78
2024/01/18 08:40:56;;;;;;;1.90;0.80;;;-1.50;99.90;;;;;;5007881;28;20060;-78
2024/01/18 08:43:27;;;;;;;3.83;1.10;;;-1.50;99.90;;;;;;5035137;28;20046;-79
2024/01/18 08:45:54;;;;;;;2.33;1.03;;;-1.50;99.90;;;;;;5035119;28;20064;-78
2024/01/18 08:48:21;;;;;;;3.70;1.10;;;-1.50;99.90;;;;;;5033883;28;20051;-78
2024/01/18 08:50:50;;;;;;;2.23;0.80;;;-1.40;99.90;;;;;;5026494;28;20132;-79
2024/01/18 08:53:21;;;;;;;1.90;0.70;;;-1.40;99.90;;;;;;4996680;28;20529;-78
2024/01/18 08:55:48;;;;;;;3.30;0.80;;;-1.30;99.90;;;;;;4996364;28;20069;-78
2024/01/18 08:58:16;;;;;;;2.53;0.90;;;-1.30;99.90;;;;;;5010419;28;20489;-78
2024/01/18 09:00:43;;;;;;;2.83;1.10;;;-1.30;99.90;;;;;;5019559;28;20049;-78
2024/01/18 09:03:10;;;;;;;2.83;0.87;;;-1.30;99.90;;;;;;5001035;28;20111;-78
2024/01/18 09:05:37;;;;;;;2.63;0.90;;;-1.30;99.90;;;;;;5016983;28;20436;-78
2024/01/18 09:08:04;;;;;;;2.67;0.70;;;-1.20;99.90;;;;;;5016997;28;20049;-78
2024/01/18 09:10:32;;;;;;;2.60;1.10;;;-1.20;99.90;;;;;;5015598;28;20054;-78
2024/01/18 09:12:59;;;;;;;2.87;0.90;;;-1.20;99.90;;;;;;5000384;28;20136;-78
2024/01/18 09:15:27;;;;;;;2.60;1.00;;;-1.20;99.90;;;;;;4979304;28;20528;-78
2024/01/18 09:17:54;;;;;;;1.83;0.80;;;-1.10;99.90;;;;;;5016249;28;20498;-77
2024/01/18 09:20:22;;;;;;;3.17;1.20;;;-1.10;99.90;;;;;;5032594;28;20053;-78
2024/01/18 09:22:49;;;;;;;3.97;1.50;;;-1.00;99.90;;;;;;5000248;28;20057;-78
2024/01/18 09:25:31;;;;;;;2.92;1.05;;;-1.00;99.90;;;;;;5004439;28;20049;-77
2024/01/18 09:27:58;;;;;;;3.67;0.80;;;-1.00;99.90;;;;;;5016679;28;20115;-78
2024/01/18 09:30:25;;;;;;;3.60;0.90;;;-1.00;99.90;;;;;;5016713;28;20041;-78
2024/01/18 09:32:52;;;;;;;2.60;0.97;;;-0.90;99.90;;;;;;5013241;28;20116;-79
2024/01/18 09:35:19;;;;;;;2.60;0.70;;;-0.90;99.90;;;;;;4986481;28;20053;-78
2024/01/18 09:37:46;;;;;;;2.13;0.60;;;-0.90;99.90;;;;;;5016224;28;20041;-77
2024/01/18 09:40:13;;;;;;;2.67;0.90;;;-0.80;99.90;;;;;;5032720;28;20046;-78
2024/01/18 09:42:47;;;;;;;1.93;0.73;;;-0.80;99.90;;;;;;5025921;28;20052;-78
2024/01/18 09:45:15;;;;;;;3.10;1.37;;;-0.70;99.90;;;;;;5016762;28;20049;-78
2024/01/18 09:47:42;;;;;;;2.10;0.70;;;-0.60;99.90;;;;;;5032635;28;20383;-78
2024/01/18 09:50:10;;;;;;;2.83;0.90;;;-0.50;99.90;;;;;;5032726;28;20049;-78
2024/01/18 09:52:38;;;;;;;2.40;1.00;;;-0.40;99.90;;;;;;5032621;28;20059;-78
2024/01/18 09:55:08;;;;;;;3.00;0.90;;;-0.40;99.90;;;;;;5015974;28;20049;-78
2024/01/18 09:57:38;;;;;;;2.90;0.70;;;-0.40;99.90;;;;;;5029577;28;20045;-78
2024/01/18 10:00:13;;;;;;;2.67;0.80;;;-0.30;99.90;;;;;;5003056;28;20060;-78
2024/01/18 10:02:40;;;;;;;4.03;1.13;;;-0.30;99.90;;;;;;5025493;28;20150;-78
2024/01/18 10:05:11;;;;;;;4.13;0.90;;;-0.10;99.90;;;;;;5027434;28;20045;-78
2024/01/18 10:07:39;;;;;;;5.17;1.00;;;0.00;99.90;;;;;;5007370;28;20086;-79
2024/01/18 10:10:08;;;;;;;2.13;0.70;;;0.00;99.90;;;;;;5026677;28;20068;-79
2024/01/18 10:12:35;;;;;;;2.10;0.80;;;0.10;99.90;;;;;;5011891;28;20084;-78
2024/01/18 10:15:02;;;;;;;3.97;1.03;;;0.10;99.90;;;;;;4987420;28;20069;-78
2024/01/18 10:17:29;;;;;;;5.10;1.50;;;0.20;99.90;;;;;;5012475;28;20049;-78
2024/01/18 10:19:57;;;;;;;1.60;0.70;;;0.20;99.90;;;;;;5006603;28;20513;-78
2024/01/18 10:22:24;;;;;;;2.50;1.00;;;0.30;99.90;;;;;;5027643;28;20099;-78
2024/01/18 10:24:52;;;;;;;3.93;1.20;;;0.40;99.90;;;;;;5031959;28;20053;-78
2024/01/18 10:27:21;;;;;;;7.73;1.40;;;0.40;99.90;;;;;;5032084;28;20102;-78
2024/01/18 10:29:52;;;;;;;4.87;1.60;;;0.50;99.90;;;;;;5032029;28;20049;-78
2024/01/18 10:32:19;;;;;;;4.53;1.37;;;0.60;99.90;;;;;;5015391;28;20042;-78
2024/01/18 10:34:47;;;;;;;3.93;1.67;;;0.70;99.90;;;;;;5030108;28;20065;-79
2024/01/18 10:37:17;;;;;;;4.33;0.93;;;0.70;99.90;;;;;;5029389;28;20033;-78
2024/01/18 10:39:46;;;;;;;3.03;1.10;;;0.80;99.90;;;;;;5012807;28;20486;-78
2024/01/18 10:42:15;;;;;;;4.50;0.80;;;0.80;99.90;;;;;;5031762;28;20044;-78
2024/01/18 10:44:44;;;;;;;4.13;1.23;;;0.80;99.90;;;;;;5031734;28;20049;-78
2024/01/18 10:47:13;;;;;;;3.03;0.97;;;0.90;99.90;;;;;;5015695;28;20055;-78
2024/01/18 10:49:41;;;;;;;1.80;0.70;;;0.90;99.90;;;;;;5015438;28;20045;-78
2024/01/18 10:52:10;;;;;;;1.70;0.50;;;0.80;99.90;;;;;;5033059;28;20046;-78
2024/01/18 10:54:38;;;;;;;0.93;0.40;;;0.80;99.90;;;;;;5031928;28;20049;-78
2024/01/18 10:57:20;;;;;;;1.47;0.50;;;0.90;99.90;;;;;;5031898;28;20041;-78
2024/01/18 10:59:48;;;;;;;2.77;0.40;;;0.80;99.90;;;;;;5015576;28;20374;-78
2024/01/18 11:02:16;;;;;;;2.80;0.70;;;0.90;99.90;;;;;;5032778;28;20046;-78
2024/01/18 11:04:45;;;;;;;4.53;1.17;;;1.00;99.90;;;;;;5015406;28;20077;-78
2024/01/18 11:07:15;;;;;;;5.60;1.20;;;1.00;99.90;;;;;;4985688;28;20137;-78
2024/01/18 11:09:42;;;;;;;3.00;1.00;;;1.10;99.90;;;;;;5015611;28;20140;-82
2024/01/18 11:12:13;;;;;;;2.93;1.07;;;1.20;99.90;;;;;;5031672;28;20073;-82
2024/01/18 11:14:41;;;;;;;5.30;1.63;;;1.20;99.90;;;;;;5007600;28;20074;-83
2024/01/18 11:17:15;;;;;;;2.63;0.83;;;1.20;99.90;;;;;;5025639;28;20474;-82
2024/01/18 11:19:44;;;;;;;5.47;1.30;;;1.30;99.90;;;;;;5031514;28;20128;-84
2024/01/18 11:22:26;;;;;;;2.20;0.70;;;1.30;99.90;;;;;;5001722;28;20137;-80
2024/01/18 11:25:03;;;;;;;4.47;1.00;;;1.30;99.90;;;;;;5019236;28;20068;-80
2024/01/18 11:27:39;;;;;;;1.90;0.80;;;1.40;99.90;;;;;;5011104;28;20053;-80
2024/01/18 11:30:11;;;;;;;2.60;0.90;;;1.30;99.90;;;;;;5031259;28;20053;-81
2024/01/18 11:32:39;;;;;;;2.43;0.87;;;1.40;99.90;;;;;;5031292;28;20045;-80
2024/01/18 11:35:14;;;;;;;3.17;1.10;;;1.40;99.90;;;;;;5017391;28;20047;-79
2024/01/18 11:37:41;;;;;;;4.77;1.03;;;1.40;99.90;;;;;;5015338;28;20383;-80
2024/01/18 11:40:10;;;;;;;4.80;1.87;;;1.40;99.90;;;;;;5015186;28;20476;-80
2024/01/18 11:42:43;;;;;;;5.70;1.70;;;1.50;99.90;;;;;;5005332;28;20049;-79
2024/01/18 11:45:18;;;;;;;3.73;1.47;;;1.50;99.90;;;;;;4998740;28;20461;-80
2024/01/18 11:47:46;;;;;;;3.23;1.10;;;1.60;99.90;;;;;;5021094;28;20074;-79
2024/01/18 11:50:14;;;;;;;3.43;1.07;;;1.60;99.90;;;;;;5016222;28;20502;-78
2024/01/18 11:52:43;;;;;;;2.90;1.40;;;1.70;99.90;;;;;;4995510;28;20042;-78
2024/01/18 11:55:16;;;;;;;2.67;1.10;;;1.70;99.90;;;;;;4994025;28;20037;-79
2024/01/18 11:57:44;;;;;;;2.53;0.90;;;1.80;99.90;;;;;;5014724;28;20505;-79
2024/01/18 12:00:13;;;;;;;3.60;1.13;;;1.80;99.90;;;;;;5000250;28;20137;-79
2024/01/18 12:02:43;;;;;;;2.33;0.80;;;1.70;99.90;;;;;;5002175;28;20041;-78
2024/01/18 12:05:10;;;;;;;3.73;1.23;;;1.80;99.90;;;;;;4986068;28;20050;-82
2024/01/18 12:07:38;;;;;;;2.67;0.90;;;1.90;99.90;;;;;;5034439;28;20049;-81
2024/01/18 12:10:10;;;;;;;2.37;0.80;;;2.00;99.90;;;;;;5012001;28;20107;-88
2024/01/18 12:12:41;;;;;;;4.35;1.30;;;2.20;99.90;;;;;;5004210;28;20509;-82
2024/01/18 12:15:18;;;;;;;4.90;1.50;;;2.40;99.90;;;;;;5018899;28;20056;-82
2024/01/18 12:17:46;;;;;;;2.73;1.00;;;2.70;99.90;;;;;;5034250;28;20048;-80
2024/01/18 12:20:14;;;;;;;3.33;1.10;;;2.80;99.90;;;;;;4999309;28;20046;-81
2024/01/18 12:22:44;;;;;;;4.50;1.43;;;2.90;99.90;;;;;;4988179;28;20048;-82
2024/01/18 12:25:11;;;;;;;3.33;1.20;;;3.00;99.90;;;;;;4998408;28;20041;-82
2024/01/18 12:27:40;;;;;;;2.17;0.87;;;3.00;99.90;;;;;;5013936;28;20144;-82
2024/01/18 12:30:08;;;;;;;4.10;1.60;;;3.00;99.80;;;;;;5018253;28;20041;-81
2024/01/18 12:32:36;;;;;;;9.02;1.67;;;3.00;99.20;;;;;;5010802;28;20145;-82
2024/01/18 12:35:04;;;;;;;5.80;1.50;;;3.00;99.00;;;;;;5012001;28;20049;-82
2024/01/18 12:37:32;;;;;;;3.60;1.00;;;2.90;98.90;;;;;;4985458;28;20041;-82
2024/01/18 12:39:59;;;;;;;3.75;1.13;;;2.80;99.00;;;;;;5016968;28;20045;-82
2024/01/18 12:42:26;;;;;;;7.05;2.08;;;2.80;99.10;;;;;;5011657;28;20041;-82
2024/01/18 12:45:12;;;;;;;3.13;1.15;;;2.80;99.20;;;;;;4987793;28;20486;-80
2024/01/18 12:47:39;;;;;;;4.10;0.90;;;2.80;99.30;;;;;;5017261;28;20052;-78
2024/01/18 12:50:09;;;;;;;2.23;0.70;;;2.70;99.40;;;;;;5033761;28;20038;-81
2024/01/18 12:52:37;;;;;;;4.93;0.90;;;2.70;99.60;;;;;;4997613;28;20152;-82